Long Beach, CA (90801)

1:49 PM PST on December 06, 2016 (GMT -0800)
Belmont Heights | | Change Station

Elev 82 ft 33.77 °N, 118.15 °W | Updated 36 seconds ago

Mostly Cloudy
Mostly Cloudy
65.5 °F
Feels Like 65.5 °F
N
3.1
Wind Variable Wind from SE
Gusts 7.5 mph

Today
High -- | Low -- °F
--% Chance of Precip.
Yesterday
High -- | Low -- °F
Precip. -- in
Pressure 29.96 in
Visibility 10.0 miles
Clouds Scattered Clouds 2500 ft
Mostly Cloudy 3100 ft
Mostly Cloudy 4200 ft
Dew Point 53 °F
Humidity 63%
Rainfall 0.00 in
Snow Depth Not available.
6:44 AM 4:43 PM
Waxing Crescent, 45% visible
METAR KLGB 062053Z 14006KT 10SM SCT025 BKN031 BKN042 17/10 A2996 RMK AO2 SLP146 T01720100 56014
Pressure 29.96 in
Visibility 10.0 miles
Clouds Scattered Clouds 2500 ft
Mostly Cloudy 3100 ft
Mostly Cloudy 4200 ft
Dew Point 53 °F
Humidity 63%
Rainfall 0.00 in
Snow Depth Not available.
6:44 AM 4:43 PM
Waxing Crescent, 45% visible
METAR KLGB 062053Z 14006KT 10SM SCT025 BKN031 BKN042 17/10 A2996 RMK AO2 SLP146 T01720100 56014

10-Day Weather Forecast

Almanac

Astronomy

Dec. 06, 2016 Rise Set
Actual Time
Civil Twilight
Nautical Twilight
Astronomical Twilight
Moon
Length of Visible Light
Length of Day
Tomorrow will be .
, % of the Moon is Illuminated

Today's Extremes

State Highs State Lows

Community

WunderPhotos

Upload Photos

1,956,033 photos uploaded!

WunderBlog® & News

Nearby

Air Quality

  Air Quality AQ Index Pollutant
Not available.

Snow Depth

Station Depth Elevation

Earthquake Activity

City Distance Mag. Time & Date
Minimum magnitude displayed is 2.5.

Coastal Water Temperatures

Place Temperature

Stations

Nearby Weather Stations

Station Location Temp. Windchill Dew Point Humidity Wind Precip. Elev Updated Type
                   

Watches & Warnings

There are currently no watches in effect.